• Join FlightAware (Why Join?)
  • Login
  • US Flag 
08:45PM EST


 

Airport Tracker/Info


-or-


 

Live Flight TrackerFlight Track Log ✈ C-FEMT ✈ 01-May-2012 ✈ KLAX - CYYZ

Flight Track Log - Related Links

Times and Time Zones

All times are in EDT time to prevent confusion due to time zone crossing. See the C-FEMT flight status page for this flight to view local times or setup timezone preferences in your user account.

Time Position Orientation Groundspeed Altitude Reporting Facility
EDT Latitude Longitude Course Direction KTS MPH feet Rate Location/Type
10:48PM 33.9632 -118.3776 244° Southwest  Level FlightAware Approximate
10:49PM 33.9100 -118.5064 188° South 252 290 4,400  Level Los Angeles Center
10:50PM 33.8367 -118.5194 74° East 213 245 8,300 3,360 Climbing Los Angeles Center
10:51PM 33.8569 -118.4325 North 103 119 11,200 3,000 Climbing Los Angeles Center
10:52PM 33.9364 -118.4297 48° Northeast 150 173 14,300 2,880 Climbing Los Angeles Center
10:53PM 33.9964 -118.3486 61° Northeast 206 237 17,000 2,640 Climbing Los Angeles Center
10:54PM 34.0397 -118.2544 55° Northeast 256 295 19,600 2,280 Climbing Los Angeles Center
10:55PM 34.0978 -118.1531 57° Northeast 303 349 21,600 1,920 Climbing Los Angeles Center
10:56PM 34.1539 -118.0492 55° Northeast 342 394 23,500 1,860 Climbing Los Angeles Center
10:57PM 34.2139 -117.9450 53° Northeast 361 415 25,400 1,020 Climbing Los Angeles Center
10:58PM 34.2717 -117.8531 58° Northeast 375 432 25,600 960 Climbing Los Angeles Center
10:59PM 34.3317 -117.7361 58° Northeast 375 432 27,400 1,680 Climbing Los Angeles Center
11:00PM 34.3914 -117.6217 55° Northeast 388 447 29,100 1,380 Climbing Los Angeles Center
11:01PM 34.4556 -117.5094 57° Northeast 393 452 30,200 1,200 Climbing Los Angeles Center
11:02PM 34.5172 -117.3944 57° Northeast 398 458 31,500 1,140 Climbing Los Angeles Center
11:03PM 34.5811 -117.2742 57° Northeast 410 472 32,500 1,020 Climbing Los Angeles Center
11:04PM 34.6469 -117.1514 57° Northeast 422 486 33,600 1,140 Climbing Los Angeles Center
11:05PM 34.7125 -117.0283 55° Northeast 427 491 34,800 1,140 Climbing Los Angeles Center
11:06PM 34.7822 -116.9053 57° Northeast 435 501 35,900 1,200 Climbing Los Angeles Center
11:07PM 34.8456 -116.7844 55° Northeast 435 501 37,300 1,200 Climbing Los Angeles Center
11:08PM 34.9131 -116.6658 55° Northeast 435 501 38,400 840 Climbing Los Angeles Center
11:09PM 34.9822 -116.5472 45° Northeast 430 495 39,000 300 Climbing Los Angeles Center
11:10PM 35.0703 -116.4411 46° Northeast 430 495 39,000  Level Los Angeles Center
11:11PM 35.1581 -116.3297 46° Northeast 440 506 39,100  Climbing Los Angeles Center
11:12PM 35.2481 -116.2153 45° Northeast 450 518 39,000  Descending Los Angeles Center
11:13PM 35.3378 -116.1033 46° Northeast 450 518 39,100  Climbing Los Angeles Center
11:14PM 35.4233 -115.9939 46° Northeast 450 518 39,000 -60 Descending Los Angeles Center
11:15PM 35.5128 -115.8814 44° Northeast 450 518 39,000  Level Los Angeles Center
11:16PM 35.5939 -115.7842 47° Northeast 445 512 39,000  Level Los Angeles Center
11:17PM 35.6792 -115.6714 46° Northeast 445 512 39,000  Level Los Angeles Center
11:18PM 35.7664 -115.5608 46° Northeast 445 512 39,000  Level Los Angeles Center
11:19PM 35.8556 -115.4472 47° Northeast 445 512 39,000  Level Los Angeles Center
11:20PM 35.9425 -115.3311 45° Northeast 450 518 39,000  Level Los Angeles Center
11:21PM 36.0314 -115.2200 46° Northeast 450 518 39,100  Climbing Los Angeles Center
11:22PM 36.1222 -115.1031 45° Northeast 450 518 39,000 -60 Descending Los Angeles Center
11:23PM 36.2131 -114.9914 46° Northeast 450 518 39,000  Level Los Angeles Center
11:24PM 36.3036 -114.8742 46° Northeast 460 529 39,000  Level Los Angeles Center
11:25PM 36.3942 -114.7592 46° Northeast 460 529 39,000  Level Los Angeles Center
11:26PM 36.4867 -114.6389 46° Northeast 460 529 39,000  Level Los Angeles Center
11:27PM 36.5769 -114.5233 47° Northeast 460 529 39,100  Climbing Los Angeles Center
11:28PM 36.6672 -114.4025 47° Northeast 460 529 39,000 -60 Descending Los Angeles Center
11:29PM 36.7572 -114.2839 58° Northeast 460 529 39,000  Level Los Angeles Center
11:30PM 36.8281 -114.1447 59° Northeast 460 529 39,000  Level Los Angeles Center
11:31PM 36.8964 -114.0028 60° Northeast 471 542 39,000  Level Los Angeles Center
11:32PM 36.9608 -113.8633 58° Northeast 471 542 39,000  Level Los Angeles Center
11:33PM 37.0369 -113.7078 59° Northeast 471 542 39,000  Level Los Angeles Center
11:34PM 37.1050 -113.5678 60° Northeast 471 542 39,000  Level Los Angeles Center
11:35PM 37.2108 -113.3383 60° Northeast 476 548 39,000  Level Salt Lake Center
11:36PM 37.2789 -113.1922 60° Northeast 477 549 39,000  Level Salt Lake Center
11:37PM 37.3464 -113.0469 60° Northeast 478 550 39,000  Level Salt Lake Center
11:38PM 37.4136 -112.9014 60° Northeast 478 550 39,000  Level Salt Lake Center
11:39PM 37.4786 -112.7569 59° Northeast 480 552 39,000  Level Salt Lake Center
11:40PM 37.5461 -112.6133 60° Northeast 480 552 39,000  Level Salt Lake Center
11:41PM 37.6136 -112.4678 60° Northeast 479 551 39,000  Level Salt Lake Center
11:42PM 37.6811 -112.3194 54° Northeast 480 552 39,000  Level Salt Lake Center
11:43PM 37.7597 -112.1814 54° Northeast 478 550 39,000  Level Salt Lake Center
11:44PM 37.8400 -112.0400 54° Northeast 483 556 39,000  Level Salt Lake Center
11:45PM 37.9194 -111.9000 54° Northeast 484 557 39,000  Level Salt Lake Center
11:46PM 37.9992 -111.7600 54° Northeast 483 556 39,100  Climbing Salt Lake Center
11:47PM 38.0797 -111.6206 53° Northeast 483 556 39,000 -60 Descending Salt Lake Center
11:48PM 38.1631 -111.4819 54° Northeast 485 558 39,000  Level Salt Lake Center
11:49PM 38.2425 -111.3403 55° Northeast 485 558 39,000  Level Salt Lake Center
11:51PM 38.3214 -111.1989 54° Northeast 483 556 39,000  Level Salt Lake Center
11:52PM 38.4006 -111.0578 54° Northeast 483 556 39,000  Level Salt Lake Center
11:53PM 38.4856 -110.9064 55° Northeast 482 555 39,000  Level Salt Lake Center
11:54PM 38.5592 -110.7722 54° Northeast 482 555 39,000  Level Salt Lake Center
11:55PM 38.6464 -110.6164 55° Northeast 482 555 39,000  Level Salt Lake Center
11:56PM 38.7206 -110.4808 55° Northeast 484 557 39,000  Level Salt Lake Center
11:57PM 38.8072 -110.3228 55° Northeast 485 558 39,000  Level Salt Lake Center
11:58PM 38.8811 -110.1858 55° Northeast 486 559 39,000  Level Salt Lake Center
11:59PM 38.9547 -110.0503 55° Northeast 485 558 39,000  Level Salt Lake Center
12:00AM 39.0408 -109.8922 56° Northeast 484 557 39,000  Level Salt Lake Center
12:01AM 39.1133 -109.7550 55° Northeast 484 557 39,000  Level Salt Lake Center
12:02AM 39.1864 -109.6183 55° Northeast 484 557 39,000  Level Salt Lake Center
12:03AM 39.2722 -109.4581 55° Northeast 485 558 39,000  Level Salt Lake Center
12:03AM 39.3236 -109.3614 56° Northeast 476 548 39,000  Level Denver Center
12:04AM 39.3914 -109.2325 56° Northeast 483 556 39,000  Level Denver Center
12:05AM 39.4722 -109.0772 55° Northeast 473 544 39,000  Level Denver Center
12:06AM 39.5483 -108.9344 56° Northeast 479 551 39,000  Level Denver Center
12:07AM 39.6156 -108.8050 56° Northeast 479 551 39,000  Level Denver Center
12:08AM 39.7044 -108.6353 56° Northeast 494 568 39,000  Level Denver Center
12:09AM 39.7781 -108.4942 57° Northeast 489 563 39,000  Level Denver Center
12:10AM 39.8450 -108.3611 56° Northeast 489 563 39,000  Level Denver Center
12:11AM 39.9289 -108.1981 56° Northeast 483 556 39,000  Level Denver Center
12:12AM 40.0039 -108.0511 57° Northeast 483 556 39,100  Climbing Denver Center
12:13AM 40.0725 -107.9142 60° Northeast 488 562 39,000 -60 Descending Denver Center
12:14AM 40.1408 -107.7608 61° Northeast 494 568 39,000  Level Denver Center
12:15AM 40.2158 -107.5856 60° Northeast 489 563 39,000  Level Denver Center
12:16AM 40.2839 -107.4314 60° Northeast 494 568 39,000  Level Denver Center
12:18AM 40.3645 -107.2460 60° Northeast 498 573 39,000  Level FlightAware ADS-B
12:18AM 40.4154 -107.1280 59° Northeast 498 573 39,000  Level FlightAware ADS-B
12:19AM 40.4911 -106.9647 61° Northeast 488 562 39,000  Level Denver Center
12:20AM 40.5564 -106.8094 60° Northeast 483 556 39,000  Level Denver Center
12:21AM 40.6256 -106.6483 64° Northeast 483 556 39,000  Level Denver Center
12:22AM 40.6819 -106.4981 59° Northeast 488 562 39,000  Level Denver Center
12:23AM 40.7633 -106.3197 61° Northeast 503 579 39,100  Climbing Denver Center
12:24AM 40.8297 -106.1606 63° Northeast 503 579 39,000  Descending Denver Center
12:25AM 40.8897 -106.0064 62° Northeast 483 556 39,100  Climbing Denver Center
12:26AM 40.9536 -105.8492 61° Northeast 481 554 39,000 -60 Descending Denver Center
12:27AM 41.0214 -105.6864 61° Northeast 488 562 39,000  Level Denver Center
12:28AM 41.0808 -105.5450 62° Northeast 488 562 39,000  Level Denver Center
12:30AM 41.1975 -105.2550 62° Northeast 496 571 39,000  Level FlightAware ADS-B
12:31AM 41.2300 -105.1740 63° Northeast 499 574 39,000  Level FlightAware ADS-B
12:31AM 41.2625 -105.0900 63° Northeast 500 575 39,000  Level FlightAware ADS-B
12:32AM 41.2939 -105.0070 64° Northeast 500 575 39,000  Level FlightAware ADS-B
12:32AM 41.3242 -104.9240 65° Northeast 498 573 39,000  Level FlightAware ADS-B
12:33AM 41.3576 -104.8280 66° East 498 573 39,000  Level FlightAware ADS-B
12:33AM 41.3803 -104.7590 61° Northeast 500 575 39,000  Level FlightAware ADS-B
12:33AM 41.3951 -104.7240 56° Northeast 501 577 39,000  Level FlightAware ADS-B
12:34AM 41.4180 -104.6790 56° Northeast 501 577 39,000  Level FlightAware ADS-B
12:34AM 41.4452 -104.6250 59° Northeast 502 578 39,000  Level FlightAware ADS-B
12:34AM 41.4693 -104.5710 61° Northeast 503 579 39,000  Level FlightAware ADS-B
12:35AM 41.5031 -104.4890 62° Northeast 503 579 39,000  Level FlightAware ADS-B
12:35AM 41.5405 -104.3950 62° Northeast 503 579 39,000  Level FlightAware ADS-B
12:36AM 41.5734 -104.3130 62° Northeast 504 580 39,000  Level FlightAware ADS-B
12:36AM 41.6060 -104.2300 62° Northeast 504 580 39,000  Level FlightAware ADS-B
12:37AM 41.6391 -104.1460 63° Northeast 500 575 39,000 60 Level FlightAware ADS-B
12:37AM 41.6708 -104.0640 63° Northeast 496 571 39,100 60 Climbing FlightAware ADS-B
12:38AM 41.7026 -103.9810 62° Northeast 493 567 39,100  Level FlightAware ADS-B
12:38AM 41.7341 -103.9000 63° Northeast 494 568 39,100 -120 Level FlightAware ADS-B
12:39AM 41.7657 -103.8180 62° Northeast 494 568 39,000 -120 Descending FlightAware ADS-B
12:39AM 41.7983 -103.7340 63° Northeast 488 562 39,000  Level FlightAware ADS-B
12:40AM 41.8314 -103.6470 63° Northeast 486 559 39,000  Level FlightAware ADS-B
12:40AM 41.8661 -103.5560 63° Northeast 483 556 39,000  Level FlightAware ADS-B
12:41AM 41.8802 -103.5190 69° East 483 556 39,000  Level FlightAware ADS-B
12:41AM 41.8898 -103.4850 75° East 483 556 39,000 120 Level FlightAware ADS-B
12:41AM 41.9026 -103.4220 79° East 481 554 39,100  Climbing FlightAware ADS-B
12:42AM 41.9153 -103.3330 80° East 482 555 39,000 -120 Descending FlightAware ADS-B
12:42AM 41.9272 -103.2450 79° East 479 551 39,000  Level FlightAware ADS-B
12:43AM 41.9398 -103.1550 79° East 476 548 39,000  Level FlightAware ADS-B
12:43AM 41.9529 -103.0630 79° East 476 548 39,000  Level FlightAware ADS-B
12:44AM 41.9683 -102.9540 79° East 474 545 39,000  Level FlightAware ADS-B
12:44AM 41.9804 -102.8660 80° East 475 547 39,000  Level FlightAware ADS-B
12:45AM 41.9922 -102.7790 80° East 476 548 39,000  Level FlightAware ADS-B
12:45AM 42.0040 -102.6910 80° East 481 554 39,000  Level FlightAware ADS-B
12:46AM 42.0160 -102.6020 80° East 485 558 39,000  Level FlightAware ADS-B
12:46AM 42.0279 -102.5120 80° East 489 563 39,000  Level FlightAware ADS-B
12:47AM 42.0405 -102.4170 80° East 490 564 39,000  Level FlightAware ADS-B
12:48AM 42.0525 -102.3270 80° East 492 566 39,000 60 Level FlightAware ADS-B
12:48AM 42.0655 -102.2270 80° East 494 568 39,100  Climbing FlightAware ADS-B
12:49AM 42.0774 -102.1350 80° East 497 572 39,000 -120 Descending FlightAware ADS-B
12:49AM 42.0893 -102.0430 80° East 497 572 39,000  Level FlightAware ADS-B
12:50AM 42.1011 -101.9510 80° East 498 573 39,000 60 Level FlightAware ADS-B
12:50AM 42.1131 -101.8570 80° East 496 571 39,100  Climbing FlightAware ADS-B
12:51AM 42.1279 -101.7400 80° East 494 568 39,000 -60 Descending FlightAware ADS-B
12:52AM 42.1555 -101.5200 81° East 494 568 39,000  Level FlightAware ADS-B
12:53AM 42.1842 -101.2864 81° East 494 568 39,000  Level Denver Center
12:54AM 42.2053 -101.1108 81° East 489 563 39,000  Level Denver Center
12:55AM 42.2292 -100.9097 80° East 484 557 39,000  Level Denver Center
12:56AM 42.2519 -100.7308 82° East 484 557 39,000  Level Denver Center
12:57AM 42.2689 -100.5722 81° East 490 564 39,000  Level Denver Center
12:58AM 42.2908 -100.3903 82° East 483 556 39,000  Level Denver Center
12:59AM 42.3117 -100.1944 81° East 483 556 39,000  Level Denver Center
01:02AM 42.3567 -99.8008 81° East 487 560 39,000  Level Minneapolis Center
01:03AM 42.3772 -99.6231 82° East 482 555 39,000  Level Minneapolis Center
01:04AM 42.3956 -99.4422 82° East 477 549 39,000  Level Minneapolis Center
01:05AM 42.4136 -99.2611 81° East 477 549 39,000  Level Minneapolis Center
01:06AM 42.4331 -99.0858 82° East 477 549 39,000  Level Minneapolis Center
01:07AM 42.4506 -98.9044 80° East 477 549 39,000  Level Minneapolis Center
01:08AM 42.4739 -98.7292 57° Northeast 477 549 39,000  Level Minneapolis Center
01:09AM 42.5500 -98.5725 49° Northeast 471 542 39,000  Level Minneapolis Center
01:10AM 42.6375 -98.4361 49° Northeast 480 552 39,000  Level Minneapolis Center
01:11AM 42.7272 -98.2936 52° Northeast 485 558 39,000  Level Minneapolis Center
01:12AM 42.8039 -98.1586 50° Northeast 491 565 39,000  Level Minneapolis Center
01:13AM 42.8911 -98.0181 49° Northeast 491 565 39,100  Climbing Minneapolis Center
01:14AM 42.9800 -97.8803 51° Northeast 491 565 39,000 -60 Descending Minneapolis Center
01:15AM 43.0650 -97.7358 49° Northeast 491 565 39,000  Level Minneapolis Center
01:16AM 43.1536 -97.5972 49° Northeast 486 559 39,000  Level Minneapolis Center
01:17AM 43.2419 -97.4581 51° Northeast 486 559 39,000  Level Minneapolis Center
01:18AM 43.3350 -97.3017 50° Northeast 486 559 39,000  Level Minneapolis Center
01:19AM 43.4214 -97.1586 50° Northeast 486 559 39,000  Level Minneapolis Center
01:20AM 43.5094 -97.0153 51° Northeast 486 559 39,000  Level Minneapolis Center
01:21AM 43.5950 -96.8717 66° East 486 559 39,000  Level Minneapolis Center
01:22AM 43.6481 -96.7056 82° East 471 542 39,000  Level Minneapolis Center
01:23AM 43.6658 -96.5228 83° East 463 533 39,000  Level Minneapolis Center
01:24AM 43.6811 -96.3428 84° East 459 528 39,000  Level Minneapolis Center
01:25AM 43.6939 -96.1625 85° East 464 534 39,000  Level Minneapolis Center
01:26AM 43.7039 -95.9994 85° East 469 540 39,000  Level Minneapolis Center
01:27AM 43.7144 -95.8131 85° East 475 547 39,000  Level Minneapolis Center
01:28AM 43.7267 -95.6269 84° East 480 552 39,000  Level Minneapolis Center
01:29AM 43.7406 -95.4408 86° East 480 552 39,100  Climbing Minneapolis Center
01:30AM 43.7500 -95.2514 85° East 480 552 39,000 240 Descending Minneapolis Center
01:31AM 43.7611 -95.0650 85° East 480 552 39,600 720 Climbing Minneapolis Center
01:32AM 43.7719 -94.8814 85° East 480 552 40,500 660 Climbing Minneapolis Center
01:33AM 43.7828 -94.6919 85° East 480 552 41,000 300 Climbing Minneapolis Center
01:34AM 43.7950 -94.5025 87° East 480 552 41,100  Climbing Minneapolis Center
01:35AM 43.8031 -94.2956 87° East 480 552 41,000 -60 Descending Minneapolis Center
01:36AM 43.8106 -94.1089 86° East 480 552 41,000  Level Minneapolis Center
01:37AM 43.8200 -93.9250 86° East 480 552 41,000  Level Minneapolis Center
01:38AM 43.8289 -93.7353 87° East 480 552 41,000  Level Minneapolis Center
01:39AM 43.8356 -93.5453 86° East 480 552 41,000  Level Minneapolis Center
01:40AM 43.8458 -93.3583 87° East 480 552 41,000  Level Minneapolis Center
01:41AM 43.8539 -93.1714 88° East 485 558 41,000  Level Minneapolis Center
01:42AM 43.8597 -92.9783 86° East 491 565 41,000  Level Minneapolis Center
01:43AM 43.8692 -92.7856 87° East 500 575 41,000  Level Minneapolis Center
01:44AM 43.8761 -92.5925 87° East 500 575 41,000  Level Minneapolis Center
01:45AM 43.8828 -92.3994 90° East 500 575 41,100  Climbing Minneapolis Center
01:46AM 43.8831 -92.2153 95° East 491 565 41,000 -60 Descending Minneapolis Center
01:47AM 43.8728 -92.0486 98° East 485 558 41,000 -60 Level Minneapolis Center
01:48AM 43.8558 -91.8764 102° East 466 536 40,900  Descending Minneapolis Center
01:49AM 43.8283 -91.6986 105° East 467 537 41,000  Climbing Minneapolis Center
01:50AM 43.7942 -91.5272 99° East 467 537 41,000  Level Minneapolis Center
01:51AM 43.7744 -91.3467 79° East 467 537 41,000 -60 Level Minneapolis Center
01:52AM 43.8036 -91.1414 68° East 472 543 40,900  Descending Chicago Center
01:53AM 43.8503 -90.9786 59° Northeast 490 564 41,000  Climbing Minneapolis Center
01:54AM 43.9114 -90.8378 57° Northeast 466 536 41,000  Level Minneapolis Center
01:55AM 43.9828 -90.6844 54° Northeast 466 536 41,000  Level Minneapolis Center
01:56AM 44.0683 -90.5217 55° Northeast 477 549 41,000  Level Minneapolis Center
01:57AM 44.1433 -90.3703 74° East 471 542 41,100  Climbing Minneapolis Center
01:58AM 44.1800 -90.1889 75° East 466 536 41,000 -60 Descending Minneapolis Center
01:59AM 44.2161 -90.0014 74° East 486 559 41,000  Level Minneapolis Center
02:00AM 44.2539 -89.8164 75° East 491 565 41,000  Level Minneapolis Center
02:01AM 44.2875 -89.6344 74° East 491 565 41,000  Level Minneapolis Center
02:02AM 44.3247 -89.4464 74° East 491 565 41,000  Level Minneapolis Center
02:03AM 44.3636 -89.2547 76° East 502 578 41,000  Level Minneapolis Center
02:04AM 44.3981 -89.0664 75° East 497 572 41,000  Level Minneapolis Center
02:05AM 44.4344 -88.8775 75° East 503 579 41,000  Level Minneapolis Center
02:06AM 44.4703 -88.6883 76° East 503 579 41,000  Level Minneapolis Center
02:07AM 44.5019 -88.5050 76° East 498 573 41,000  Level Minneapolis Center
02:08AM 44.5353 -88.3156 85° East 493 567 41,000  Level Minneapolis Center
02:09AM 44.5475 -88.1339 98° East 479 551 41,000  Level Minneapolis Center
02:10AM 44.5283 -87.9489 98° East 470 541 41,000  Level Minneapolis Center
02:11AM 44.5108 -87.7672 98° East 475 547 41,000  Level Minneapolis Center
02:12AM 44.4911 -87.5828 99° East 475 547 41,000  Level Minneapolis Center
02:13AM 44.4708 -87.4011 100° East 475 547 41,000  Level Minneapolis Center
02:14AM 44.4483 -87.2172 99° East 482 555 41,000  Level Minneapolis Center
02:15AM 44.4278 -87.0361 99° East 477 549 41,000  Level Minneapolis Center
02:16AM 44.4097 -86.8692 99° East 482 555 41,000  Level Minneapolis Center
02:17AM 44.3886 -86.6914 100° East 477 549 41,000  Level Minneapolis Center
02:18AM 44.3653 -86.5136 99° East 472 543 41,000  Level Minneapolis Center
02:19AM 44.3436 -86.3331 100° East 466 536 41,000  Level Minneapolis Center
02:20AM 44.3214 -86.1528 100° East 466 536 41,000  Level Minneapolis Center
02:21AM 44.2989 -85.9697 100° East 471 542 41,000  Level Minneapolis Center
02:22AM 44.2764 -85.7925 100° East 471 542 41,000  Level Minneapolis Center
02:23AM 44.2533 -85.6097 100° East 471 542 41,000  Level Minneapolis Center
02:24AM 44.2303 -85.4297 100° East 471 542 41,000  Level Minneapolis Center
02:25AM 44.2067 -85.2503 100° East 476 548 41,000  Level Minneapolis Center
02:26AM 44.1831 -85.0708 101° East 476 548 41,000  Level Minneapolis Center
02:27AM 44.1586 -84.8886 101° East 476 548 41,000  Level Minneapolis Center
02:28AM 44.1347 -84.7125 101° East 481 554 41,000  Level Minneapolis Center
02:29AM 44.1097 -84.5306 108° East 481 554 41,000  Level Minneapolis Center
02:29AM 44.0667 -84.3500 97° East 480 552 41,000  Level Toronto Center
02:30AM 44.0500 -84.1500 99° East 470 541 41,000  Level Toronto Center
02:31AM 44.0333 -84.0000 105° East 460 529 41,000  Level Toronto Center
02:32AM 44.0000 -83.8333 97° East 470 541 41,000  Level Toronto Center
02:33AM 43.9833 -83.6500 103° East 470 541 41,000  Level Toronto Center
02:34AM 43.9500 -83.4500 105° East 470 541 41,000  Level Toronto Center
02:35AM 43.9167 -83.2833 97° East 470 541 41,000  Level Toronto Center
02:36AM 43.9000 -83.1000 104° East 470 541 41,000  Level Toronto Center
02:37AM 43.8667 -82.9167 105° East 470 541 41,000  Level Toronto Center
02:38AM 43.8333 -82.7500 97° East 470 541 41,000  Level Toronto Center
02:39AM 43.8167 -82.5667 105° East 470 541 41,000  Level Toronto Center
02:40AM 43.7833 -82.4000 104° East 470 541 41,000 -120 Level Toronto Center
02:41AM 43.7500 -82.2167 104° East 470 541 40,800 -1,020 Descending Toronto Center
02:42AM 43.7167 -82.0333 90° East 470 541 39,000 -2,220 Descending Toronto Center
02:43AM 43.7167 -81.8667 104° East 460 529 36,400 -3,300 Descending Toronto Center
02:44AM 43.6833 -81.6833 105° East 460 529 32,500 -3,660 Descending Toronto Center
02:45AM 43.6500 -81.5167 107° East 470 541 29,100 -3,300 Descending Toronto Center
02:46AM 43.6167 -81.3667 104° East 470 541 26,000 -3,120 Descending Toronto Center
02:47AM 43.5833 -81.1833 105° East 450 518 22,900 -3,000 Descending Toronto Center
02:48AM 43.5500 -81.0167 90° East 440 506 20,100 -2,700 Descending Toronto Center
02:49AM 43.5500 -80.8500 80° East 410 472 17,500 -2,460 Descending Toronto Center
02:50AM 43.5667 -80.7167 90° East 380 437 15,200 -2,400 Descending Toronto Center
02:51AM 43.5667 -80.5833 90° East 380 437 12,700 -2,460 Descending Toronto Center
02:52AM 43.5667 -80.4333 90° East 360 414 10,300 -2,280 Descending Toronto Center
02:53AM 43.5667 -80.3000 90° East 340 391 8,200 -1,560 Descending Toronto Center
02:54AM 43.5667 -80.1833 90° East 300 345 7,200 -960 Descending Toronto Center
02:55AM 43.5667 -80.0667 105° East 290 334 6,300 -1,320 Descending Toronto Center
02:56AM 43.5500 -79.9833 90° East 280 322 4,600 -1,380 Descending Toronto Center
02:57AM 43.5500 -79.8833 71° East 250 288 3,600 -900 Descending Toronto Center
02:58AM 43.5667 -79.8167 55° Northeast 210 242 2,900 -360 Descending Toronto Center
02:59AM 43.6000 -79.7500 65° Northeast 180 207 2,900 -600 Level Toronto Center
03:00AM 43.6167 -79.7000 47° Northeast 170 196 1,700 -900 Descending Toronto Center
03:01AM 43.6500 -79.6500 36° Northeast 140 161 1,100 -600 Descending Toronto Center
03:02AM 43.6667 -79.6333 36° Northeast 120 138 600 -540 Descending Toronto Center